createdAt,value
2023-01-31T00:01:57.568Z,3.55
2023-01-31T00:04:26.547Z,2.20
2023-01-31T00:06:53.888Z,3.50
2023-01-31T00:09:25.359Z,2.60
2023-01-31T00:11:53.389Z,2.80
2023-01-31T00:14:21.102Z,4.20
2023-01-31T00:16:50.325Z,3.22
2023-01-31T00:19:19.567Z,3.03
2023-01-31T00:21:46.500Z,3.07
2023-01-31T00:24:16.132Z,3.05
2023-01-31T00:26:43.002Z,2.97
2023-01-31T00:29:11.993Z,3.63
2023-01-31T00:31:39.421Z,2.70
2023-01-31T00:34:06.541Z,3.33
2023-01-31T00:36:34.946Z,3.45
2023-01-31T00:39:08.883Z,2.60
2023-01-31T00:41:37.868Z,2.33
2023-01-31T00:44:06.275Z,2.80
2023-01-31T00:46:33.339Z,3.40
2023-01-31T00:49:01.226Z,2.90
2023-01-31T00:51:30.888Z,3.15
2023-01-31T00:53:57.549Z,3.30
2023-01-31T00:56:25.517Z,2.83
2023-01-31T00:58:55.680Z,3.10
2023-01-31T01:03:56.539Z,3.03
2023-01-31T01:06:24.060Z,2.78
2023-01-31T01:08:50.857Z,3.03
2023-01-31T01:11:21.737Z,2.50
2023-01-31T01:13:48.912Z,2.47
2023-01-31T01:16:18.801Z,3.00
2023-01-31T01:18:48.121Z,2.60
2023-01-31T01:21:19.725Z,2.87
2023-01-31T01:23:49.503Z,3.30
2023-01-31T01:26:25.157Z,2.85
2023-01-31T01:28:53.171Z,3.03
2023-01-31T01:31:20.964Z,2.92
2023-01-31T01:33:51.727Z,3.10
2023-01-31T01:36:22.144Z,2.90
2023-01-31T01:38:52.236Z,3.25
2023-01-31T01:41:19.997Z,2.83
2023-01-31T01:43:49.677Z,3.15
2023-01-31T01:46:33.554Z,3.00
2023-01-31T01:49:05.538Z,3.67
2023-01-31T01:51:34.302Z,3.35
2023-01-31T01:54:06.748Z,3.15
2023-01-31T01:56:38.884Z,3.08
2023-01-31T01:59:28.985Z,2.92
2023-01-31T02:01:56.846Z,3.17
2023-01-31T02:04:30.461Z,2.53
2023-01-31T02:06:57.951Z,2.25
2023-01-31T02:09:48.740Z,2.20
2023-01-31T02:12:18.232Z,3.20
2023-01-31T02:14:48.528Z,2.67
2023-01-31T02:17:19.043Z,3.50
2023-01-31T02:20:12.424Z,2.38
2023-01-31T02:22:48.331Z,3.10
2023-01-31T02:25:15.073Z,2.45
2023-01-31T02:27:56.203Z,2.30
2023-01-31T02:30:46.900Z,2.08
2023-01-31T02:33:45.028Z,2.63
2023-01-31T02:36:43.245Z,2.30
2023-01-31T02:39:18.343Z,2.40
2023-01-31T02:42:04.017Z,2.40
2023-01-31T02:45:01.512Z,2.53
2023-01-31T02:47:46.305Z,2.45
2023-01-31T02:50:12.955Z,2.85
2023-01-31T02:52:48.915Z,2.17
2023-01-31T02:55:57.770Z,2.00
2023-01-31T02:58:29.809Z,1.90
2023-01-31T03:01:03.901Z,2.50
2023-01-31T03:03:34.507Z,2.45
2023-01-31T03:06:23.293Z,3.00
2023-01-31T03:09:25.668Z,2.83
2023-01-31T03:12:04.169Z,2.53
2023-01-31T03:14:46.943Z,3.55
2023-01-31T03:17:34.583Z,2.72
2023-01-31T03:20:19.585Z,2.70
2023-01-31T03:22:48.525Z,2.03
2023-01-31T03:25:19.868Z,2.70
2023-01-31T03:27:56.631Z,2.22
2023-01-31T03:31:05.000Z,2.65
2023-01-31T03:33:40.258Z,2.15
2023-01-31T03:36:20.065Z,2.25
2023-01-31T03:38:58.451Z,2.13
2023-01-31T03:41:41.831Z,2.15
2023-01-31T03:44:32.432Z,2.40
2023-01-31T03:47:25.258Z,2.10
2023-01-31T03:49:56.506Z,1.90
2023-01-31T03:52:30.337Z,2.78
2023-01-31T03:55:16.165Z,2.13
2023-01-31T03:57:44.799Z,2.78
2023-01-31T04:00:15.605Z,2.40
2023-01-31T04:02:43.739Z,1.85
2023-01-31T04:05:15.960Z,2.15
2023-01-31T04:07:45.306Z,2.67
2023-01-31T04:10:18.446Z,2.77
2023-01-31T04:12:46.559Z,2.65
2023-01-31T04:15:13.833Z,2.65
2023-01-31T04:17:40.535Z,2.75
2023-01-31T04:20:08.423Z,2.33
2023-01-31T04:22:37.382Z,2.53
2023-01-31T04:25:05.602Z,2.40
2023-01-31T04:27:32.271Z,3.45
2023-01-31T04:30:01.648Z,2.05
2023-01-31T04:32:28.848Z,2.17
2023-01-31T04:34:59.760Z,3.00
2023-01-31T04:37:29.712Z,2.97
2023-01-31T04:39:58.505Z,2.28
2023-01-31T04:42:25.205Z,2.47
2023-01-31T04:44:51.857Z,2.92
2023-01-31T04:47:18.598Z,3.10
2023-01-31T04:49:45.638Z,3.53
2023-01-31T04:52:14.517Z,3.00
2023-01-31T04:54:43.727Z,2.63
2023-01-31T04:57:15.040Z,3.10
2023-01-31T04:59:41.726Z,1.95
2023-01-31T05:02:10.670Z,2.28
2023-01-31T05:04:37.332Z,2.17
2023-01-31T05:07:04.008Z,2.55
2023-01-31T05:09:30.674Z,2.85
2023-01-31T05:11:57.462Z,2.20
2023-01-31T05:14:27.298Z,2.28
2023-01-31T05:16:54.038Z,2.70
2023-01-31T05:19:20.828Z,2.78
2023-01-31T05:21:58.915Z,2.20
2023-01-31T05:24:28.620Z,2.67
2023-01-31T05:26:58.966Z,2.63
2023-01-31T05:29:29.893Z,2.13
2023-01-31T05:32:00.657Z,3.03
2023-01-31T05:34:33.070Z,2.72
2023-01-31T05:36:59.851Z,3.17
2023-01-31T05:39:26.559Z,3.08
2023-01-31T05:41:53.359Z,3.38
2023-01-31T05:44:23.416Z,3.75
2023-01-31T05:46:52.207Z,3.08
2023-01-31T05:49:18.874Z,3.10
2023-01-31T05:51:45.534Z,2.70
2023-01-31T05:54:14.767Z,3.70
2023-01-31T05:56:41.744Z,4.50
2023-01-31T05:59:08.601Z,3.65
2023-01-31T06:01:35.241Z,5.10
2023-01-31T06:04:04.216Z,3.58
2023-01-31T06:06:30.925Z,3.28
2023-01-31T06:08:57.581Z,3.78
2023-01-31T06:11:26.735Z,3.50
2023-01-31T06:13:57.698Z,3.63
2023-01-31T06:16:24.921Z,4.38
2023-01-31T06:18:51.583Z,3.60
2023-01-31T06:21:18.274Z,3.67
2023-01-31T06:23:47.936Z,3.92
2023-01-31T06:26:14.849Z,3.47
2023-01-31T06:28:46.033Z,3.78
2023-01-31T06:31:13.666Z,3.83
2023-01-31T06:33:47.349Z,4.35
2023-01-31T06:36:18.051Z,3.83
2023-01-31T06:38:49.157Z,3.95
2023-01-31T06:41:16.288Z,4.05
2023-01-31T06:43:42.949Z,3.42
2023-01-31T06:46:09.693Z,3.75
2023-01-31T06:48:36.415Z,3.65
2023-01-31T06:51:03.183Z,4.00
2023-01-31T06:53:30.400Z,3.75
2023-01-31T06:55:57.467Z,3.65
2023-01-31T06:58:24.292Z,4.15
2023-01-31T07:00:53.714Z,3.28
2023-01-31T07:03:20.518Z,4.10
2023-01-31T07:05:48.670Z,3.80
2023-01-31T07:08:15.527Z,3.95
2023-01-31T07:10:42.248Z,3.75
2023-01-31T07:13:09.015Z,3.42
2023-01-31T07:15:38.188Z,3.30
2023-01-31T07:18:07.235Z,3.95
2023-01-31T07:20:34.106Z,4.03
2023-01-31T07:23:01.137Z,4.13
2023-01-31T07:25:28.150Z,4.00
2023-01-31T07:27:54.850Z,4.20
2023-01-31T07:30:22.632Z,4.65
2023-01-31T07:32:49.976Z,4.03
2023-01-31T07:35:19.768Z,3.25
2023-01-31T07:37:52.249Z,4.72
2023-01-31T07:40:19.278Z,4.07
2023-01-31T07:42:46.109Z,4.40
2023-01-31T07:45:23.442Z,3.95
2023-01-31T07:47:51.308Z,3.90
2023-01-31T07:50:18.579Z,3.65
2023-01-31T07:52:45.468Z,3.90
2023-01-31T07:55:14.340Z,3.60
2023-01-31T07:57:40.979Z,3.88
2023-01-31T08:00:28.528Z,4.07
2023-01-31T08:03:13.914Z,3.70
2023-01-31T08:05:43.050Z,3.83
2023-01-31T08:08:12.483Z,4.13
2023-01-31T08:10:40.368Z,3.75
2023-01-31T08:13:07.045Z,3.92
2023-01-31T08:15:34.168Z,4.82
2023-01-31T08:18:06.192Z,5.03
2023-01-31T08:20:33.719Z,3.70
2023-01-31T08:23:00.403Z,4.13
2023-01-31T08:25:30.672Z,4.03
2023-01-31T08:27:58.079Z,4.05
2023-01-31T08:30:24.852Z,4.03
2023-01-31T08:32:51.568Z,4.60
2023-01-31T08:35:18.456Z,3.50
2023-01-31T08:37:45.275Z,3.80
2023-01-31T08:40:12.517Z,4.30
2023-01-31T08:42:39.505Z,4.30
2023-01-31T08:45:07.256Z,3.72
2023-01-31T08:47:34.371Z,4.25
2023-01-31T08:50:01.032Z,3.53
2023-01-31T08:52:27.746Z,4.22
2023-01-31T08:54:54.419Z,3.72
2023-01-31T08:57:21.234Z,4.25
2023-01-31T08:59:50.389Z,3.70
2023-01-31T09:02:19.290Z,3.55
2023-01-31T09:04:49.505Z,3.42
2023-01-31T09:09:45.286Z,3.83
2023-01-31T09:12:14.197Z,3.67
2023-01-31T09:14:40.885Z,4.00
2023-01-31T09:17:07.985Z,3.50
2023-01-31T09:19:37.742Z,3.78
2023-01-31T09:22:04.547Z,2.90
2023-01-31T09:24:33.787Z,2.70
2023-01-31T09:27:00.569Z,2.60
2023-01-31T09:29:28.628Z,2.05
2023-01-31T09:31:55.943Z,2.53
2023-01-31T09:34:22.867Z,2.67
2023-01-31T09:36:49.637Z,3.35
2023-01-31T09:39:16.330Z,3.15
2023-01-31T09:41:43.015Z,2.30
2023-01-31T09:44:17.211Z,2.33
2023-01-31T09:46:52.346Z,3.10
2023-01-31T09:49:25.028Z,2.42
2023-01-31T09:51:58.448Z,2.78
2023-01-31T09:54:33.203Z,2.83
2023-01-31T09:57:09.076Z,2.83
2023-01-31T09:59:45.744Z,2.50
2023-01-31T10:02:27.892Z,2.30
2023-01-31T10:05:14.117Z,2.78
2023-01-31T10:08:02.160Z,2.70
2023-01-31T10:10:50.874Z,2.88
2023-01-31T10:13:26.580Z,2.53
2023-01-31T10:15:59.331Z,2.47
2023-01-31T10:18:42.264Z,2.88
2023-01-31T10:21:21.159Z,3.13
2023-01-31T10:24:16.234Z,2.53
2023-01-31T10:26:49.082Z,3.40
2023-01-31T10:29:52.302Z,2.40
2023-01-31T10:32:28.958Z,3.00
2023-01-31T10:35:16.343Z,3.28
2023-01-31T10:37:56.571Z,2.50
2023-01-31T10:40:31.667Z,2.95
2023-01-31T10:43:06.612Z,3.03
2023-01-31T10:45:34.052Z,2.55
2023-01-31T10:48:14.544Z,2.70
2023-01-31T10:51:05.710Z,3.15
2023-01-31T10:53:48.620Z,3.95
2023-01-31T10:56:32.847Z,3.35
2023-01-31T10:59:05.558Z,3.35
2023-01-31T11:01:34.094Z,3.50
2023-01-31T11:04:01.946Z,3.15
2023-01-31T11:06:28.714Z,2.97
2023-01-31T11:09:01.093Z,2.60
2023-01-31T11:11:29.322Z,3.25
2023-01-31T11:14:04.001Z,3.03
2023-01-31T11:16:36.601Z,2.42
2023-01-31T11:19:26.413Z,2.53
2023-01-31T11:21:54.170Z,3.20
2023-01-31T11:24:25.208Z,2.97
2023-01-31T11:26:52.969Z,2.55
2023-01-31T11:29:33.458Z,3.38
2023-01-31T11:32:06.683Z,2.35
2023-01-31T11:34:33.935Z,3.65
2023-01-31T11:37:34.036Z,2.67
2023-01-31T11:40:26.875Z,3.15
2023-01-31T11:42:54.503Z,2.20
2023-01-31T11:45:23.425Z,3.17
2023-01-31T11:47:52.865Z,2.42
2023-01-31T11:50:36.058Z,2.88
2023-01-31T11:53:13.919Z,2.88
2023-01-31T11:55:45.135Z,2.35
2023-01-31T11:58:37.773Z,2.85
2023-01-31T12:01:14.526Z,2.45
2023-01-31T12:04:10.027Z,3.10
2023-01-31T12:06:39.319Z,2.60
2023-01-31T12:11:56.232Z,2.50
2023-01-31T12:14:27.027Z,2.70
2023-01-31T12:16:56.512Z,2.53
2023-01-31T12:20:26.576Z,2.53
2023-01-31T12:23:20.528Z,2.20
2023-01-31T12:26:15.367Z,3.20
2023-01-31T12:28:50.344Z,2.70
2023-01-31T12:31:29.092Z,2.20
2023-01-31T12:34:38.396Z,3.22
2023-01-31T12:37:29.598Z,3.30
2023-01-31T12:40:24.237Z,2.78
2023-01-31T12:42:54.430Z,2.38
2023-01-31T12:45:47.689Z,2.67
2023-01-31T12:48:22.905Z,2.28
2023-01-31T12:50:59.180Z,2.20
2023-01-31T12:53:33.865Z,2.00
2023-01-31T12:56:06.351Z,1.85
2023-01-31T12:59:13.953Z,2.95
2023-01-31T13:02:00.028Z,2.42
2023-01-31T13:04:30.960Z,1.98
2023-01-31T13:07:06.010Z,1.83
2023-01-31T13:09:35.724Z,1.65
2023-01-31T13:12:08.359Z,2.08
2023-01-31T13:14:41.835Z,1.80
2023-01-31T13:17:12.614Z,1.48
2023-01-31T13:20:17.841Z,1.90
2023-01-31T13:22:53.030Z,2.15
2023-01-31T13:25:28.755Z,1.90
2023-01-31T13:28:12.950Z,1.73
2023-01-31T13:30:52.941Z,1.92
2023-01-31T13:36:21.878Z,1.98
2023-01-31T13:38:52.403Z,1.70
2023-01-31T13:41:33.560Z,1.80
2023-01-31T13:44:02.346Z,1.40
2023-01-31T13:46:40.236Z,1.23
2023-01-31T13:49:10.782Z,1.77
2023-01-31T13:51:43.916Z,1.70
2023-01-31T13:54:10.556Z,1.50
2023-01-31T13:56:39.995Z,1.40
2023-01-31T13:59:10.753Z,1.50
2023-01-31T14:01:46.688Z,1.10
2023-01-31T14:04:17.488Z,1.23
2023-01-31T14:06:55.979Z,1.23
2023-01-31T14:09:33.308Z,1.23
2023-01-31T14:12:02.189Z,1.13
2023-01-31T14:14:38.763Z,1.20
2023-01-31T14:17:13.434Z,1.30
2023-01-31T14:19:43.082Z,1.30
2023-01-31T14:22:21.928Z,1.10
2023-01-31T14:24:58.142Z,1.70
2023-01-31T14:27:36.816Z,1.98
2023-01-31T14:30:08.858Z,1.40
2023-01-31T14:32:44.803Z,1.95
2023-01-31T14:35:14.552Z,1.60
2023-01-31T14:38:19.607Z,1.85
2023-01-31T14:41:04.390Z,1.77
2023-01-31T14:44:06.426Z,1.73
2023-01-31T14:47:10.815Z,1.83
2023-01-31T14:49:43.610Z,2.10
2023-01-31T14:52:38.988Z,1.67
2023-01-31T14:55:26.967Z,2.50
2023-01-31T14:57:58.455Z,2.65
2023-01-31T15:00:45.415Z,2.88
2023-01-31T15:03:18.192Z,2.40
2023-01-31T15:06:05.918Z,2.33
2023-01-31T15:08:40.577Z,1.80
2023-01-31T15:11:14.092Z,2.38
2023-01-31T15:13:47.049Z,1.88
2023-01-31T15:16:19.686Z,2.17
2023-01-31T15:18:49.946Z,2.40
2023-01-31T15:21:33.047Z,2.05
2023-01-31T15:24:00.656Z,1.48
2023-01-31T15:26:31.534Z,1.33
2023-01-31T15:29:00.195Z,1.50
2023-01-31T15:31:36.500Z,1.20
2023-01-31T15:34:11.741Z,1.20
2023-01-31T15:37:15.877Z,1.08
2023-01-31T15:39:54.463Z,1.23
2023-01-31T15:42:33.379Z,1.40
2023-01-31T15:45:24.686Z,1.63
2023-01-31T15:48:15.750Z,1.35
2023-01-31T15:50:57.629Z,1.15
2023-01-31T15:53:27.993Z,1.42
2023-01-31T15:55:59.673Z,1.17
2023-01-31T15:58:31.131Z,1.30
2023-01-31T16:01:00.690Z,1.25
2023-01-31T16:03:29.786Z,1.17
2023-01-31T16:05:58.496Z,1.17
2023-01-31T16:08:37.502Z,1.42
2023-01-31T16:11:07.980Z,1.48
2023-01-31T16:13:40.836Z,1.58
2023-01-31T16:16:14.194Z,1.30
2023-01-31T16:18:45.178Z,0.90
2023-01-31T16:21:25.564Z,1.08
2023-01-31T16:24:13.241Z,1.00
2023-01-31T16:26:49.927Z,1.10
2023-01-31T16:29:19.477Z,1.08
2023-01-31T16:31:52.395Z,1.10
2023-01-31T16:34:24.197Z,1.00
2023-01-31T16:36:50.838Z,1.70
2023-01-31T16:39:46.776Z,1.13
2023-01-31T16:42:18.407Z,0.82
2023-01-31T16:44:46.169Z,1.20
2023-01-31T16:47:46.235Z,1.10
2023-01-31T16:50:32.806Z,1.13
2023-01-31T16:53:31.979Z,1.33
2023-01-31T16:56:13.907Z,1.10
2023-01-31T16:58:46.677Z,1.15
2023-01-31T17:01:15.562Z,2.03
2023-01-31T17:03:46.213Z,1.50
2023-01-31T17:06:21.549Z,1.05
2023-01-31T17:08:48.365Z,1.30
2023-01-31T17:11:40.868Z,1.40
2023-01-31T17:14:07.911Z,1.55
2023-01-31T17:16:34.612Z,1.50
2023-01-31T17:19:01.391Z,1.45
2023-01-31T17:21:29.160Z,1.35
2023-01-31T17:23:59.248Z,1.55
2023-01-31T17:29:02.136Z,1.20
2023-01-31T17:31:31.845Z,1.35
2023-01-31T17:33:58.646Z,1.25
2023-01-31T17:36:25.319Z,1.30
2023-01-31T17:38:53.222Z,1.67
2023-01-31T17:41:24.388Z,1.58
2023-01-31T17:43:51.367Z,1.42
2023-01-31T17:46:19.704Z,1.38
2023-01-31T17:48:48.550Z,1.48
2023-01-31T17:51:15.333Z,1.60
2023-01-31T17:53:50.030Z,1.42
2023-01-31T17:56:18.416Z,1.40
2023-01-31T17:58:45.318Z,1.70
2023-01-31T18:01:14.132Z,1.70
2023-01-31T18:03:41.750Z,2.03
2023-01-31T18:06:09.567Z,1.70
2023-01-31T18:08:36.609Z,2.03
2023-01-31T18:11:09.917Z,1.60
2023-01-31T18:13:39.838Z,1.88
2023-01-31T18:18:42.051Z,2.13
2023-01-31T18:21:12.737Z,2.33
2023-01-31T18:23:39.594Z,2.50
2023-01-31T18:26:07.628Z,2.80
2023-01-31T18:28:34.889Z,2.40
2023-01-31T18:31:08.165Z,2.25
2023-01-31T18:33:34.971Z,2.70
2023-01-31T18:36:05.893Z,2.70
2023-01-31T18:38:32.977Z,2.75
2023-01-31T18:41:00.308Z,2.58
2023-01-31T18:43:34.590Z,2.55
2023-01-31T18:46:10.077Z,2.63
2023-01-31T18:48:38.886Z,2.35
2023-01-31T18:51:08.445Z,2.58
2023-01-31T18:53:37.197Z,2.70
2023-01-31T18:56:34.410Z,2.50
2023-01-31T18:59:01.091Z,2.30
2023-01-31T19:01:28.792Z,2.60
2023-01-31T19:03:58.153Z,2.92
2023-01-31T19:06:29.505Z,3.22
2023-01-31T19:08:59.781Z,2.92
2023-01-31T19:11:28.279Z,3.10
2023-01-31T19:13:55.402Z,2.42
2023-01-31T19:16:25.103Z,2.70
2023-01-31T19:18:52.300Z,3.30
2023-01-31T19:21:24.853Z,2.80
2023-01-31T19:23:54.601Z,3.47
2023-01-31T19:26:21.785Z,3.00
2023-01-31T19:28:50.866Z,3.05
2023-01-31T19:31:20.918Z,3.83
2023-01-31T19:36:23.511Z,2.88
2023-01-31T19:38:53.001Z,2.58
2023-01-31T19:41:22.198Z,3.20
2023-01-31T19:43:52.377Z,2.80
2023-01-31T19:46:20.934Z,2.40
2023-01-31T19:48:47.586Z,2.85
2023-01-31T19:51:16.789Z,2.92
2023-01-31T19:53:46.800Z,2.50
2023-01-31T19:56:16.769Z,2.47
2023-01-31T19:58:45.802Z,2.45
2023-01-31T20:01:16.006Z,2.50
2023-01-31T20:03:44.190Z,2.90
2023-01-31T20:06:18.309Z,2.97
2023-01-31T20:08:52.962Z,3.00
2023-01-31T20:11:20.051Z,2.50
2023-01-31T20:13:49.174Z,2.17
2023-01-31T20:16:16.102Z,2.60
2023-01-31T20:18:45.519Z,2.47
2023-01-31T20:21:19.246Z,3.67
2023-01-31T20:23:46.240Z,2.17
2023-01-31T20:26:16.795Z,2.72
2023-01-31T20:28:44.484Z,2.50
2023-01-31T20:31:13.958Z,3.97
2023-01-31T20:33:41.382Z,2.90
2023-01-31T20:36:08.945Z,2.97
2023-01-31T20:38:37.755Z,3.08
2023-01-31T20:41:05.711Z,2.83
2023-01-31T20:43:32.481Z,3.83
2023-01-31T20:46:10.383Z,2.97
2023-01-31T20:48:41.032Z,2.78
2023-01-31T20:51:10.624Z,3.70
2023-01-31T20:53:37.726Z,3.33
2023-01-31T20:56:12.280Z,3.75
2023-01-31T20:58:40.927Z,3.60
2023-01-31T21:01:09.436Z,4.30
2023-01-31T21:03:36.880Z,4.28
2023-01-31T21:06:04.593Z,3.80
2023-01-31T21:08:32.019Z,3.83
2023-01-31T21:10:59.247Z,3.70
2023-01-31T21:13:31.551Z,3.70
2023-01-31T21:16:01.782Z,3.90
2023-01-31T21:18:30.382Z,3.90
2023-01-31T21:20:57.653Z,4.40
2023-01-31T21:23:25.259Z,4.03
2023-01-31T21:25:52.031Z,3.80
2023-01-31T21:28:18.706Z,4.03
2023-01-31T21:30:45.564Z,3.85
2023-01-31T21:33:12.422Z,3.95
2023-01-31T21:35:39.083Z,3.85
2023-01-31T21:38:08.247Z,4.63
2023-01-31T21:40:34.950Z,4.53
2023-01-31T21:43:07.636Z,4.30
2023-01-31T21:45:39.773Z,4.18
2023-01-31T21:48:32.084Z,4.63
2023-01-31T21:51:08.399Z,4.35
2023-01-31T21:53:40.191Z,5.90
2023-01-31T21:56:18.608Z,5.05
2023-01-31T21:58:47.807Z,4.63
2023-01-31T22:01:18.505Z,5.87
2023-01-31T22:03:49.362Z,5.47
2023-01-31T22:06:19.767Z,5.72
2023-01-31T22:08:56.538Z,5.20
2023-01-31T22:11:23.448Z,5.07
2023-01-31T22:13:55.930Z,4.93
2023-01-31T22:16:25.338Z,4.40
2023-01-31T22:18:52.287Z,4.70
2023-01-31T22:21:24.884Z,5.28
2023-01-31T22:23:53.938Z,4.47
2023-01-31T22:26:26.982Z,5.65
2023-01-31T22:28:59.104Z,4.63
2023-01-31T22:31:26.244Z,4.45
2023-01-31T22:33:53.204Z,4.22
2023-01-31T22:36:20.185Z,4.40
2023-01-31T22:38:46.948Z,4.55
2023-01-31T22:41:17.616Z,4.85
2023-01-31T22:43:47.914Z,4.90
2023-01-31T22:46:17.462Z,4.57
2023-01-31T22:48:44.259Z,4.93
2023-01-31T22:51:13.677Z,4.88
2023-01-31T22:53:41.191Z,5.10
2023-01-31T22:56:15.124Z,4.70
2023-01-31T22:58:44.770Z,4.88
2023-01-31T23:01:22.882Z,4.78
2023-01-31T23:03:50.328Z,4.28
2023-01-31T23:06:17.810Z,5.00
2023-01-31T23:08:49.917Z,4.97
2023-01-31T23:11:17.912Z,4.70
2023-01-31T23:13:47.574Z,4.70
2023-01-31T23:16:42.771Z,4.75
2023-01-31T23:19:10.313Z,4.28
2023-01-31T23:21:40.153Z,5.15
2023-01-31T23:24:08.493Z,4.75
2023-01-31T23:26:35.274Z,4.47
2023-01-31T23:29:06.934Z,5.07
2023-01-31T23:31:33.810Z,4.53
2023-01-31T23:34:07.201Z,5.78
2023-01-31T23:36:33.936Z,4.75
2023-01-31T23:39:00.645Z,4.63
2023-01-31T23:41:31.843Z,4.57
2023-01-31T23:43:58.530Z,4.55
2023-01-31T23:46:27.800Z,4.20
2023-01-31T23:48:54.561Z,4.40
2023-01-31T23:51:21.215Z,4.65
2023-01-31T23:53:47.914Z,4.80
2023-01-31T23:56:16.779Z,5.00
2023-01-31T23:58:45.641Z,4.90
